Montgomery, Iowa
Current Conditions -  °F | °C
As of 5:14 PM on Wednesday 22 Oct 2014 (Local Time) from KMJQ Reporting Station
Clear Clear  
Wind Chill: 66°   Ceiling: Unl
Heat Index: 66°   Visibility: 10mi
Dew Point: 45°   Wind: 17mph
Humidity: 46%   Direction: 150°SSE
Pressure: 29.98"   Gusts: 26mph
Location:  43.4265°N, 95.1547°W
Report Text: KMJQ 222214Z AUTO 15015G23KT 10SM CLR 19/07 A2998 RMK AO2
Loading
Personal Weather Stations






























Interactive Weather Map
Tropical Storm Tracking
New forecast layout! Learn more

10-Day Weather Forecast

Advertisements
Track Severe Weather on mobile